Time;durP1;ratioP1;P1;durP2;ratioP2;P2;SDS_P1;SDS_P2;PMS_P1;PMS_P2;Temp;Humidity;BMP_temperature;BMP_pressure;BME280_temperature;BME280_humidity;BME280_pressure;Samples;Min_cycle;Max_cycle;Signal;HPM_P1;HPM_P2
2023/04/13 00:00:08;;;;;;;;;;;;;;;;;;5037635;28;19916;-78
2023/04/13 00:02:54;;;;;;;;;;;;;;;;;;5063684;28;19920;-78
2023/04/13 00:05:41;;;;;;;;;;;;;;;;;;5048185;28;19916;-78
2023/04/13 00:08:29;;;;;;;;;;;;;;;;;;5037700;28;19925;-77
2023/04/13 00:11:16;;;;;;;;;;;;;;;;;;5073818;28;20397;-77
2023/04/13 00:14:03;;;;;;;;;;;;;;;;;;5055466;28;20291;-78
2023/04/13 00:16:49;;;;;;;;;;;;;;;;;;5051317;28;19912;-78
2023/04/13 00:19:36;;;;;;;;;;;;;;;;;;5053823;28;19924;-78
2023/04/13 00:22:22;;;;;;;;;;;;;;;;;;5062995;28;19925;-79
2023/04/13 00:25:10;;;;;;;;;;;;;;;;;;5064622;28;19912;-78
2023/04/13 00:28:00;;;;;;;;;;;;;;;;;;5060690;28;19931;-77
2023/04/13 00:30:47;;;;;;;;;;;;;;;;;;5055897;28;19916;-79
2023/04/13 00:33:33;;;;;;;;;;;;;;;;;;5064385;28;19958;-78
2023/04/13 00:36:23;;;;;;;;;;;;;;;;;;5061172;28;19974;-78
2023/04/13 00:39:09;;;;;;;;;;;;;;;;;;5083832;28;19924;-78
2023/04/13 00:41:56;;;;;;;;;;;;;;;;;;5067923;28;19924;-78
2023/04/13 00:44:43;;;;;;;;;;;;;;;;;;5064462;28;19916;-78
2023/04/13 00:47:29;;;;;;;;;;;;;;;;;;5065269;28;19929;-79
2023/04/13 00:50:16;;;;;;;;;;;;;;;;;;5043202;28;19923;-78
2023/04/13 00:53:02;;;;;;;;;;;;;;;;;;5070735;28;20601;-78
2023/04/13 00:55:49;;;;;;;;;;;;;;;;;;5057665;28;19916;-78
2023/04/13 00:58:35;;;;;;;;;;;;;;;;;;5064217;28;19928;-78
2023/04/13 01:01:22;;;;;;;;;;;;;;;;;;5065310;28;19924;-78
2023/04/13 01:04:08;;;;;;;;;;;;;;;;;;5065006;28;19920;-78
2023/04/13 01:06:55;;;;;;;;;;;;;;;;;;5054346;28;19927;-79
2023/04/13 01:09:41;;;;;;;;;;;;;;;;;;5064755;28;19920;-79
2023/04/13 01:12:28;;;;;;;;;;;;;;;;;;5056621;28;20421;-79
2023/04/13 01:15:14;;;;;;;;;;;;;;;;;;5056846;28;19924;-79
2023/04/13 01:18:06;;;;;;;;;;;;;;;;;;5064882;28;19917;-79
2023/04/13 01:20:52;;;;;;;;;;;;;;;;;;5056532;28;19923;-78
2023/04/13 01:23:39;;;;;;;;;;;;;;;;;;5063993;28;19916;-79
2023/04/13 01:26:26;;;;;;;;;;;;;;;;;;5066738;28;19917;-78
2023/04/13 01:29:13;;;;;;;;;;;;;;;;;;5053980;28;19921;-77
2023/04/13 01:31:59;;;;;;;;;;;;;;;;;;5060154;28;19948;-78
2023/04/13 01:34:45;;;;;;;;;;;;;;;;;;5073718;28;19928;-79
2023/04/13 01:37:32;;;;;;;;;;;;;;;;;;5069792;28;19924;-79
2023/04/13 01:40:19;;;;;;;;;;;;;;;;;;5068729;28;20117;-78
2023/04/13 01:43:06;;;;;;;;;;;;;;;;;;5042286;28;19916;-78
2023/04/13 01:45:52;;;;;;;;;;;;;;;;;;5066313;28;20628;-78
2023/04/13 01:48:39;;;;;;;;;;;;;;;;;;5060667;28;20517;-78
2023/04/13 01:51:28;;;;;;;;;;;;;;;;;;5056801;28;19923;-78
2023/04/13 01:54:15;;;;;;;;;;;;;;;;;;5074407;28;19916;-78
2023/04/13 01:57:01;;;;;;;;;;;;;;;;;;5066188;28;19917;-77
2023/04/13 01:59:48;;;;;;;;;;;;;;;;;;5068550;28;20138;-78
2023/04/13 02:02:34;;;;;;;;;;;;;;;;;;5073086;28;19913;-78
2023/04/13 02:05:20;;;;;;;;;;;;;;;;;;5079141;28;19920;-78
2023/04/13 02:08:07;;;;;;;;;;;;;;;;;;5058025;28;19928;-78
2023/04/13 02:10:54;;;;;;;;;;;;;;;;;;5067729;28;19917;-78
2023/04/13 02:13:40;;;;;;;;;;;;;;;;;;5079241;28;20378;-78
2023/04/13 02:16:27;;;;;;;;;;;;;;;;;;5084306;28;19921;-78
2023/04/13 02:19:13;;;;;;;;;;;;;;;;;;5078318;28;19920;-79
2023/04/13 02:22:00;;;;;;;;;;;;;;;;;;5077586;28;19922;-78
2023/04/13 02:24:47;;;;;;;;;;;;;;;;;;5083345;28;19919;-78
2023/04/13 02:27:37;;;;;;;;;;;;;;;;;;5075975;28;19924;-78
2023/04/13 02:30:24;;;;;;;;;;;;;;;;;;5079233;28;19924;-78
2023/04/13 02:33:11;;;;;;;;;;;;;;;;;;5074413;28;19939;-78
2023/04/13 02:35:57;;;;;;;;;;;;;;;;;;5073063;28;19943;-82
2023/04/13 02:38:44;;;;;;;;;;;;;;;;;;5075154;28;19924;-78
2023/04/13 02:41:30;;;;;;;;;;;;;;;;;;5065771;28;19916;-79
2023/04/13 02:44:17;;;;;;;;;;;;;;;;;;5064777;28;19920;-79
2023/04/13 02:47:03;;;;;;;;;;;;;;;;;;5066343;28;19916;-78
2023/04/13 02:49:50;;;;;;;;;;;;;;;;;;5069432;28;19920;-78
2023/04/13 02:52:36;;;;;;;;;;;;;;;;;;5077555;28;19938;-79
2023/04/13 02:55:23;;;;;;;;;;;;;;;;;;5086625;28;20260;-78
2023/04/13 02:58:09;;;;;;;;;;;;;;;;;;5074190;28;19917;-79
2023/04/13 03:00:56;;;;;;;;;;;;;;;;;;5075251;28;20286;-78
2023/04/13 03:03:44;;;;;;;;;;;;;;;;;;5055873;28;19916;-77
2023/04/13 03:06:31;;;;;;;;;;;;;;;;;;5073140;28;20311;-78
2023/04/13 03:09:18;;;;;;;;;;;;;;;;;;5060467;28;19927;-78
2023/04/13 03:12:06;;;;;;;;;;;;;;;;;;5083677;28;19912;-78
2023/04/13 03:14:52;;;;;;;;;;;;;;;;;;5072740;28;19923;-78
2023/04/13 03:17:40;;;;;;;;;;;;;;;;;;5062688;28;19921;-78
2023/04/13 03:20:27;;;;;;;;;;;;;;;;;;5064624;28;19927;-78
2023/04/13 03:23:16;;;;;;;;;;;;;;;;;;5050635;28;20387;-77
2023/04/13 03:26:03;;;;;;;;;;;;;;;;;;5057715;28;20418;-78
2023/04/13 03:28:49;;;;;;;;;;;;;;;;;;5071194;28;19928;-77
2023/04/13 03:31:36;;;;;;;;;;;;;;;;;;5057706;28;19932;-80
2023/04/13 03:34:22;;;;;;;;;;;;;;;;;;5060974;28;19921;-80
2023/04/13 03:37:09;;;;;;;;;;;;;;;;;;5062711;28;20921;-80
2023/04/13 03:39:56;;;;;;;;;;;;;;;;;;5062710;28;19928;-80
2023/04/13 03:42:42;;;;;;;;;;;;;;;;;;5052805;28;19922;-81
2023/04/13 03:45:29;;;;;;;;;;;;;;;;;;5062321;28;19941;-81
2023/04/13 03:48:16;;;;;;;;;;;;;;;;;;5057635;28;20385;-81
2023/04/13 03:51:02;;;;;;;;;;;;;;;;;;5065047;28;19920;-81
2023/04/13 03:53:49;;;;;;;;;;;;;;;;;;5079513;28;19938;-82
2023/04/13 03:56:35;;;;;;;;;;;;;;;;;;5085871;28;19923;-82
2023/04/13 03:59:21;;;;;;;;;;;;;;;;;;5050874;28;19927;-80
2023/04/13 04:02:08;;;;;;;;;;;;;;;;;;5056742;28;20637;-81
2023/04/13 04:04:54;;;;;;;;;;;;;;;;;;5063401;28;19920;-81
2023/04/13 04:07:41;;;;;;;;;;;;;;;;;;5061195;28;19921;-80
2023/04/13 04:10:27;;;;;;;;;;;;;;;;;;5062204;28;19948;-80
2023/04/13 04:13:14;;;;;;;;;;;;;;;;;;5054496;28;20660;-79
2023/04/13 04:16:02;;;;;;;;;;;;;;;;;;5062052;28;19920;-78
2023/04/13 04:18:48;;;;;;;;;;;;;;;;;;5067497;28;20493;-79
2023/04/13 04:21:35;;;;;;;;;;;;;;;;;;5059288;28;19923;-81
2023/04/13 04:24:22;;;;;;;;;;;;;;;;;;5060095;28;19920;-81
2023/04/13 04:27:08;;;;;;;;;;;;;;;;;;5057305;28;19917;-81
2023/04/13 04:29:58;;;;;;;;;;;;;;;;;;5066517;28;19931;-81
2023/04/13 04:32:44;;;;;;;;;;;;;;;;;;5063579;28;19917;-81
2023/04/13 04:35:33;;;;;;;;;;;;;;;;;;5068692;28;20520;-81
2023/04/13 04:38:23;;;;;;;;;;;;;;;;;;5070284;28;20442;-81
2023/04/13 04:41:12;;;;;;;;;;;;;;;;;;5076045;28;20323;-81
2023/04/13 04:44:01;;;;;;;;;;;;;;;;;;5067647;28;19916;-77
2023/04/13 04:46:51;;;;;;;;;;;;;;;;;;5064036;28;19916;-78
2023/04/13 04:49:37;;;;;;;;;;;;;;;;;;5063524;28;19928;-78
2023/04/13 04:52:24;;;;;;;;;;;;;;;;;;5068260;28;19917;-79
2023/04/13 04:55:11;;;;;;;;;;;;;;;;;;5055341;28;19924;-78
2023/04/13 04:57:57;;;;;;;;;;;;;;;;;;5061922;28;19939;-78
2023/04/13 05:00:43;;;;;;;;;;;;;;;;;;5061854;28;19921;-78
2023/04/13 05:03:30;;;;;;;;;;;;;;;;;;5051757;28;19922;-78
2023/04/13 05:06:17;;;;;;;;;;;;;;;;;;5060299;28;20444;-79
2023/04/13 05:09:04;;;;;;;;;;;;;;;;;;5061355;28;19931;-76
2023/04/13 05:11:51;;;;;;;;;;;;;;;;;;5052882;28;19964;-77
2023/04/13 05:14:38;;;;;;;;;;;;;;;;;;5074380;28;19927;-77
2023/04/13 05:17:24;;;;;;;;;;;;;;;;;;5065063;28;19913;-79
2023/04/13 05:20:11;;;;;;;;;;;;;;;;;;5064577;28;19947;-77
2023/04/13 05:22:58;;;;;;;;;;;;;;;;;;5062503;28;19916;-78
2023/04/13 05:25:44;;;;;;;;;;;;;;;;;;5066927;28;19916;-78
2023/04/13 05:28:32;;;;;;;;;;;;;;;;;;5057387;28;19940;-78
2023/04/13 05:31:20;;;;;;;;;;;;;;;;;;5049514;28;19924;-77
2023/04/13 05:34:06;;;;;;;;;;;;;;;;;;5058859;28;19916;-78
2023/04/13 05:36:52;;;;;;;;;;;;;;;;;;5061589;28;20006;-77
2023/04/13 05:39:39;;;;;;;;;;;;;;;;;;5059775;28;19932;-78
2023/04/13 05:42:25;;;;;;;;;;;;;;;;;;5034808;28;19920;-77
2023/04/13 05:45:15;;;;;;;;;;;;;;;;;;5042203;28;19917;-77
2023/04/13 05:48:03;;;;;;;;;;;;;;;;;;5029046;28;19937;-78
2023/04/13 05:50:50;;;;;;;;;;;;;;;;;;5040301;28;19931;-78
2023/04/13 05:53:36;;;;;;;;;;;;;;;;;;5057682;28;19939;-77
2023/04/13 05:56:24;;;;;;;;;;;;;;;;;;5039659;28;19924;-78
2023/04/13 05:59:11;;;;;;;;;;;;;;;;;;5028706;28;19921;-77
2023/04/13 06:01:58;;;;;;;;;;;;;;;;;;5043075;28;19924;-77
2023/04/13 06:04:45;;;;;;;;;;;;;;;;;;5036188;28;20312;-77
2023/04/13 06:07:33;;;;;;;;;;;;;;;;;;5026321;28;19940;-77
2023/04/13 06:10:19;;;;;;;;;;;;;;;;;;5035441;28;19932;-78
2023/04/13 06:13:07;;;;;;;;;;;;;;;;;;5034099;28;19920;-78
2023/04/13 06:15:53;;;;;;;;;;;;;;;;;;5033520;28;19923;-78
2023/04/13 06:18:40;;;;;;;;;;;;;;;;;;5038698;28;19925;-78
2023/04/13 06:21:28;;;;;;;;;;;;;;;;;;5033823;28;19921;-77
2023/04/13 06:24:16;;;;;;;;;;;;;;;;;;5058700;28;19928;-78
2023/04/13 06:27:03;;;;;;;;;;;;;;;;;;5032058;28;20656;-78
2023/04/13 06:29:50;;;;;;;;;;;;;;;;;;5028331;28;20593;-78
2023/04/13 06:32:36;;;;;;;;;;;;;;;;;;5040086;28;19944;-79
2023/04/13 06:35:23;;;;;;;;;;;;;;;;;;5052646;28;19920;-80
2023/04/13 06:38:10;;;;;;;;;;;;;;;;;;5063460;28;19939;-84
2023/04/13 06:40:57;;;;;;;;;;;;;;;;;;5079420;28;19925;-83
2023/04/13 06:43:43;;;;;;;;;;;;;;;;;;5083535;28;19969;-84
2023/04/13 06:46:30;;;;;;;;;;;;;;;;;;5083359;28;19943;-83
2023/04/13 06:49:16;;;;;;;;;;;;;;;;;;5081585;28;20294;-84
2023/04/13 06:52:03;;;;;;;;;;;;;;;;;;5082486;28;19916;-83
2023/04/13 06:54:49;;;;;;;;;;;;;;;;;;5080897;28;19942;-82
2023/04/13 06:57:36;;;;;;;;;;;;;;;;;;5081575;28;19920;-83
2023/04/13 07:00:23;;;;;;;;;;;;;;;;;;5080167;28;19935;-83
2023/04/13 07:03:09;;;;;;;;;;;;;;;;;;5081120;28;19943;-83
2023/04/13 07:05:56;;;;;;;;;;;;;;;;;;5081911;28;19962;-83
2023/04/13 07:08:42;;;;;;;;;;;;;;;;;;5081972;28;20481;-83
2023/04/13 07:11:29;;;;;;;;;;;;;;;;;;5069554;28;19927;-83
2023/04/13 07:14:15;;;;;;;;;;;;;;;;;;5064839;28;19927;-83
2023/04/13 07:17:02;;;;;;;;;;;;;;;;;;5082920;28;19920;-83
2023/04/13 07:19:48;;;;;;;;;;;;;;;;;;5077745;28;19921;-82
2023/04/13 07:22:35;;;;;;;;;;;;;;;;;;5077115;28;20615;-81
2023/04/13 07:25:22;;;;;;;;;;;;;;;;;;5082191;28;19927;-83
2023/04/13 07:28:08;;;;;;;;;;;;;;;;;;5073398;28;20244;-84
2023/04/13 07:30:55;;;;;;;;;;;;;;;;;;5083713;28;20407;-84
2023/04/13 07:33:41;;;;;;;;;;;;;;;;;;5070840;28;19916;-83
2023/04/13 07:36:28;;;;;;;;;;;;;;;;;;5082398;28;19916;-83
2023/04/13 07:39:15;;;;;;;;;;;;;;;;;;5082492;28;19932;-80
2023/04/13 07:42:01;;;;;;;;;;;;;;;;;;5082019;28;19924;-78
2023/04/13 07:44:48;;;;;;;;;;;;;;;;;;5084595;28;20407;-78
2023/04/13 07:47:35;;;;;;;;;;;;;;;;;;5081317;28;19920;-79
2023/04/13 07:50:22;;;;;;;;;;;;;;;;;;5067090;28;20015;-76
2023/04/13 07:53:08;;;;;;;;;;;;;;;;;;5080173;28;19927;-77
2023/04/13 07:55:55;;;;;;;;;;;;;;;;;;5080557;28;19920;-77
2023/04/13 07:58:41;;;;;;;;;;;;;;;;;;5080500;28;19927;-77
2023/04/13 08:01:27;;;;;;;;;;;;;;;;;;5076229;28;19924;-76
2023/04/13 08:04:14;;;;;;;;;;;;;;;;;;5069623;28;19916;-77
2023/04/13 08:07:01;;;;;;;;;;;;;;;;;;5075945;28;19942;-76
2023/04/13 08:09:48;;;;;;;;;;;;;;;;;;5077754;28;19923;-77
2023/04/13 08:12:35;;;;;;;;;;;;;;;;;;5076386;28;19920;-77
2023/04/13 08:15:22;;;;;;;;;;;;;;;;;;5081441;28;19920;-77
2023/04/13 08:18:09;;;;;;;;;;;;;;;;;;5066957;28;20367;-77
2023/04/13 08:20:56;;;;;;;;;;;;;;;;;;5082500;28;19927;-77
2023/04/13 08:23:42;;;;;;;;;;;;;;;;;;5079660;28;19928;-77
2023/04/13 08:26:29;;;;;;;;;;;;;;;;;;5082002;28;20573;-77
2023/04/13 08:29:15;;;;;;;;;;;;;;;;;;5084100;28;19934;-77
2023/04/13 08:32:02;;;;;;;;;;;;;;;;;;5078896;28;19920;-77
2023/04/13 08:34:48;;;;;;;;;;;;;;;;;;5081972;28;19920;-76
2023/04/13 08:37:35;;;;;;;;;;;;;;;;;;5081066;28;19924;-76
2023/04/13 08:40:22;;;;;;;;;;;;;;;;;;5071260;28;19946;-77
2023/04/13 08:43:08;;;;;;;;;;;;;;;;;;5082425;28;19923;-77
2023/04/13 08:45:55;;;;;;;;;;;;;;;;;;5084377;28;19916;-76
2023/04/13 08:48:42;;;;;;;;;;;;;;;;;;5074209;28;19931;-77
2023/04/13 08:51:28;;;;;;;;;;;;;;;;;;5086396;28;19920;-76
2023/04/13 08:54:16;;;;;;;;;;;;;;;;;;5086727;28;19927;-77
2023/04/13 08:57:02;;;;;;;;;;;;;;;;;;5084839;28;19920;-76
2023/04/13 08:59:49;;;;;;;;;;;;;;;;;;5082927;28;19924;-77
2023/04/13 09:02:35;;;;;;;;;;;;;;;;;;5085707;28;19923;-76
2023/04/13 09:05:22;;;;;;;;;;;;;;;;;;5084600;28;19922;-76
2023/04/13 09:08:08;;;;;;;;;;;;;;;;;;5082140;28;19932;-76
2023/04/13 09:10:56;;;;;;;;;;;;;;;;;;5086180;28;19935;-77
2023/04/13 09:13:42;;;;;;;;;;;;;;;;;;5084297;28;20298;-76
2023/04/13 09:16:28;;;;;;;;;;;;;;;;;;5080763;28;19927;-77
2023/04/13 09:19:15;;;;;;;;;;;;;;;;;;5084275;28;19916;-77
2023/04/13 09:22:02;;;;;;;;;;;;;;;;;;5084590;28;19920;-77
2023/04/13 09:24:49;;;;;;;;;;;;;;;;;;5086286;28;19939;-77
2023/04/13 09:27:35;;;;;;;;;;;;;;;;;;5080541;28;19924;-77
2023/04/13 09:30:22;;;;;;;;;;;;;;;;;;5072374;28;19946;-77
2023/04/13 09:33:09;;;;;;;;;;;;;;;;;;5084618;28;19931;-76
2023/04/13 09:35:55;;;;;;;;;;;;;;;;;;5081452;28;19920;-76
2023/04/13 09:38:42;;;;;;;;;;;;;;;;;;5084525;28;19969;-77
2023/04/13 09:41:29;;;;;;;;;;;;;;;;;;5084530;28;19920;-76
2023/04/13 09:44:16;;;;;;;;;;;;;;;;;;5080381;28;19958;-76
2023/04/13 09:47:03;;;;;;;;;;;;;;;;;;5083949;28;20370;-76
2023/04/13 09:49:50;;;;;;;;;;;;;;;;;;5082073;28;20393;-76
2023/04/13 09:52:36;;;;;;;;;;;;;;;;;;5081615;28;19942;-76
2023/04/13 09:55:23;;;;;;;;;;;;;;;;;;5083088;28;19922;-76
2023/04/13 09:58:09;;;;;;;;;;;;;;;;;;5072773;28;20361;-76
2023/04/13 10:00:56;;;;;;;;;;;;;;;;;;5083562;28;19954;-76
2023/04/13 10:03:43;;;;;;;;;;;;;;;;;;5081990;28;19927;-76
2023/04/13 10:06:30;;;;;;;;;;;;;;;;;;5071579;28;19922;-76
2023/04/13 10:09:17;;;;;;;;;;;;;;;;;;5069845;28;19928;-77
2023/04/13 10:12:03;;;;;;;;;;;;;;;;;;5084983;28;19920;-77
2023/04/13 10:14:50;;;;;;;;;;;;;;;;;;5083921;28;19927;-76
2023/04/13 10:17:36;;;;;;;;;;;;;;;;;;5083165;28;19920;-76
2023/04/13 10:20:23;;;;;;;;;;;;;;;;;;5074576;28;19916;-76
2023/04/13 10:23:10;;;;;;;;;;;;;;;;;;5077939;28;19931;-75
2023/04/13 10:25:59;;;;;;;;;;;;;;;;;;5084041;28;19920;-77
2023/04/13 10:28:48;;;;;;;;;;;;;;;;;;5082664;28;20582;-76
2023/04/13 10:31:36;;;;;;;;;;;;;;;;;;5079831;28;20283;-76
2023/04/13 10:34:23;;;;;;;;;;;;;;;;;;5082738;28;19974;-76
2023/04/13 10:37:10;;;;;;;;;;;;;;;;;;5076903;28;19920;-76
2023/04/13 10:39:56;;;;;;;;;;;;;;;;;;5081267;28;19934;-76
2023/04/13 10:42:43;;;;;;;;;;;;;;;;;;5051684;28;19921;-76
2023/04/13 10:45:34;;;;;;;;;;;;;;;;;;5076753;28;19920;-76
2023/04/13 10:48:21;;;;;;;;;;;;;;;;;;5080229;28;19935;-77
2023/04/13 10:51:07;;;;;;;;;;;;;;;;;;5073537;28;19920;-76
2023/04/13 10:53:54;;;;;;;;;;;;;;;;;;5082707;28;19917;-78
2023/04/13 10:56:40;;;;;;;;;;;;;;;;;;5077949;28;19930;-77
2023/04/13 10:59:27;;;;;;;;;;;;;;;;;;5082024;28;19954;-76
2023/04/13 11:02:13;;;;;;;;;;;;;;;;;;5081779;28;19923;-77
2023/04/13 11:05:00;;;;;;;;;;;;;;;;;;5084339;28;19912;-77
2023/04/13 11:07:48;;;;;;;;;;;;;;;;;;5082008;28;20656;-77
2023/04/13 11:10:34;;;;;;;;;;;;;;;;;;5079457;28;19927;-77
2023/04/13 11:13:20;;;;;;;;;;;;;;;;;;5080604;28;19924;-78
2023/04/13 11:16:07;;;;;;;;;;;;;;;;;;5082033;28;20526;-77
2023/04/13 11:18:53;;;;;;;;;;;;;;;;;;5083327;28;19916;-77
2023/04/13 11:21:43;;;;;;;;;;;;;;;;;;5085962;28;19935;-76
2023/04/13 11:24:33;;;;;;;;;;;;;;;;;;5082616;28;19920;-77
2023/04/13 11:27:20;;;;;;;;;;;;;;;;;;5080236;28;21420;-77
2023/04/13 11:30:07;;;;;;;;;;;;;;;;;;5083695;28;20382;-77
2023/04/13 11:32:54;;;;;;;;;;;;;;;;;;5064384;28;19931;-77
2023/04/13 11:35:41;;;;;;;;;;;;;;;;;;5062519;28;19920;-77
2023/04/13 11:38:27;;;;;;;;;;;;;;;;;;5078314;28;19928;-77
2023/04/13 11:41:13;;;;;;;;;;;;;;;;;;5073590;28;20306;-77
2023/04/13 11:44:01;;;;;;;;;;;;;;;;;;5070131;28;19916;-77
2023/04/13 11:46:47;;;;;;;;;;;;;;;;;;5080450;28;19916;-77
2023/04/13 11:49:34;;;;;;;;;;;;;;;;;;5084733;28;20275;-77
2023/04/13 11:52:20;;;;;;;;;;;;;;;;;;5075281;28;19935;-77
2023/04/13 11:55:07;;;;;;;;;;;;;;;;;;5083357;28;19916;-77
2023/04/13 11:57:54;;;;;;;;;;;;;;;;;;5083081;28;19916;-77
2023/04/13 12:00:40;;;;;;;;;;;;;;;;;;5073248;28;19923;-77
2023/04/13 12:03:27;;;;;;;;;;;;;;;;;;5080994;28;19939;-77
2023/04/13 12:06:15;;;;;;;;;;;;;;;;;;5082345;28;19959;-77
2023/04/13 12:09:03;;;;;;;;;;;;;;;;;;5083370;28;19932;-77
2023/04/13 12:11:52;;;;;;;;;;;;;;;;;;5081160;28;20592;-78
2023/04/13 12:14:39;;;;;;;;;;;;;;;;;;5082315;28;19926;-76
2023/04/13 12:17:25;;;;;;;;;;;;;;;;;;5078627;28;19916;-76
2023/04/13 12:20:12;;;;;;;;;;;;;;;;;;5082783;28;19938;-76
2023/04/13 12:22:58;;;;;;;;;;;;;;;;;;5085816;28;19916;-76
2023/04/13 12:25:45;;;;;;;;;;;;;;;;;;5084332;28;20389;-78
2023/04/13 12:28:31;;;;;;;;;;;;;;;;;;5086174;28;19927;-80
2023/04/13 12:31:18;;;;;;;;;;;;;;;;;;5083759;28;19912;-77
2023/04/13 12:34:04;;;;;;;;;;;;;;;;;;5076536;28;19916;-77
2023/04/13 12:36:51;;;;;;;;;;;;;;;;;;5076649;28;19920;-77
2023/04/13 12:39:37;;;;;;;;;;;;;;;;;;5047977;28;19929;-76
2023/04/13 12:42:24;;;;;;;;;;;;;;;;;;5041597;28;19924;-75
2023/04/13 12:45:10;;;;;;;;;;;;;;;;;;5053649;28;19922;-76
2023/04/13 12:47:57;;;;;;;;;;;;;;;;;;5054795;28;20402;-73
2023/04/13 12:50:43;;;;;;;;;;;;;;;;;;5054138;28;19913;-75
2023/04/13 12:53:30;;;;;;;;;;;;;;;;;;5053905;28;19919;-76
2023/04/13 12:56:17;;;;;;;;;;;;;;;;;;5054543;28;19919;-75
2023/04/13 12:59:04;;;;;;;;;;;;;;;;;;5039897;28;19921;-75
2023/04/13 13:01:50;;;;;;;;;;;;;;;;;;5029244;28;20643;-76
2023/04/13 13:04:37;;;;;;;;;;;;;;;;;;5061989;28;20444;-76
2023/04/13 13:07:23;;;;;;;;;;;;;;;;;;5056491;28;19920;-76
2023/04/13 13:10:10;;;;;;;;;;;;;;;;;;5056987;28;20295;-76
2023/04/13 13:12:56;;;;;;;;;;;;;;;;;;5066779;28;19927;-76
2023/04/13 13:15:43;;;;;;;;;;;;;;;;;;5071323;28;19920;-76
2023/04/13 13:18:30;;;;;;;;;;;;;;;;;;5061140;28;19936;-76
2023/04/13 13:21:16;;;;;;;;;;;;;;;;;;5065936;28;19927;-76
2023/04/13 13:24:03;;;;;;;;;;;;;;;;;;5050451;28;19916;-76
2023/04/13 13:26:49;;;;;;;;;;;;;;;;;;5067893;28;20390;-76
2023/04/13 13:29:36;;;;;;;;;;;;;;;;;;5048657;28;19925;-76
2023/04/13 13:32:22;;;;;;;;;;;;;;;;;;5064694;28;19921;-76
2023/04/13 13:35:09;;;;;;;;;;;;;;;;;;5059063;28;19923;-76
2023/04/13 13:37:56;;;;;;;;;;;;;;;;;;5057977;28;19928;-76
2023/04/13 13:40:42;;;;;;;;;;;;;;;;;;5056088;28;19916;-76
2023/04/13 13:43:29;;;;;;;;;;;;;;;;;;5057397;28;19925;-76
2023/04/13 13:46:15;;;;;;;;;;;;;;;;;;5063696;28;19917;-76
2023/04/13 13:49:02;;;;;;;;;;;;;;;;;;5061669;28;19925;-77
2023/04/13 13:51:48;;;;;;;;;;;;;;;;;;5065982;28;19917;-76
2023/04/13 13:54:35;;;;;;;;;;;;;;;;;;5050873;28;20728;-76
2023/04/13 13:57:22;;;;;;;;;;;;;;;;;;5065509;28;19916;-75
2023/04/13 14:00:15;;;;;;;;;;;;;;;;;;5065618;28;19912;-76
2023/04/13 14:03:02;;;;;;;;;;;;;;;;;;5061983;28;19927;-76
2023/04/13 14:05:48;;;;;;;;;;;;;;;;;;5062413;28;19920;-77
2023/04/13 14:08:35;;;;;;;;;;;;;;;;;;5058798;28;19943;-76
2023/04/13 14:11:21;;;;;;;;;;;;;;;;;;5066250;28;20360;-76
2023/04/13 14:14:08;;;;;;;;;;;;;;;;;;5063173;28;19918;-76
2023/04/13 14:16:54;;;;;;;;;;;;;;;;;;5062327;28;19912;-76
2023/04/13 14:19:41;;;;;;;;;;;;;;;;;;5060728;28;19916;-76
2023/04/13 14:22:27;;;;;;;;;;;;;;;;;;5056550;28;19923;-76
2023/04/13 14:25:14;;;;;;;;;;;;;;;;;;5057900;28;20351;-75
2023/04/13 14:28:00;;;;;;;;;;;;;;;;;;5063881;28;19924;-75
2023/04/13 14:30:47;;;;;;;;;;;;;;;;;;5065609;28;19943;-75
2023/04/13 14:33:33;;;;;;;;;;;;;;;;;;5058376;28;19939;-76
2023/04/13 14:36:20;;;;;;;;;;;;;;;;;;5063615;28;19928;-76
2023/04/13 14:39:06;;;;;;;;;;;;;;;;;;5064608;28;19928;-76
2023/04/13 14:41:52;;;;;;;;;;;;;;;;;;5043198;28;19920;-76
2023/04/13 14:44:39;;;;;;;;;;;;;;;;;;5063777;28;19923;-76
2023/04/13 14:47:25;;;;;;;;;;;;;;;;;;5063871;28;19924;-76
2023/04/13 14:50:13;;;;;;;;;;;;;;;;;;5050145;28;20415;-76
2023/04/13 14:53:02;;;;;;;;;;;;;;;;;;5042503;28;19932;-76
2023/04/13 14:55:48;;;;;;;;;;;;;;;;;;5052661;28;19926;-75
2023/04/13 14:58:35;;;;;;;;;;;;;;;;;;5059260;28;20276;-75
2023/04/13 15:01:23;;;;;;;;;;;;;;;;;;5052387;28;19921;-75
2023/04/13 15:04:09;;;;;;;;;;;;;;;;;;5075038;28;19920;-76
2023/04/13 15:06:56;;;;;;;;;;;;;;;;;;5067953;28;19916;-76
2023/04/13 15:09:42;;;;;;;;;;;;;;;;;;5082925;28;19928;-76
2023/04/13 15:12:29;;;;;;;;;;;;;;;;;;5070204;28;20286;-77
2023/04/13 15:15:15;;;;;;;;;;;;;;;;;;5075062;28;19923;-76
2023/04/13 15:18:02;;;;;;;;;;;;;;;;;;5084623;28;19923;-76
2023/04/13 15:20:48;;;;;;;;;;;;;;;;;;5090671;28;20577;-75
2023/04/13 15:23:35;;;;;;;;;;;;;;;;;;5059264;28;19923;-77
2023/04/13 15:26:22;;;;;;;;;;;;;;;;;;5065932;28;19919;-76
2023/04/13 15:29:09;;;;;;;;;;;;;;;;;;5075649;28;19928;-76
2023/04/13 15:31:55;;;;;;;;;;;;;;;;;;5079692;28;19923;-76
2023/04/13 15:34:42;;;;;;;;;;;;;;;;;;5059303;28;19920;-77
2023/04/13 15:37:28;;;;;;;;;;;;;;;;;;5073753;28;19924;-76
2023/04/13 15:40:15;;;;;;;;;;;;;;;;;;5059010;28;19943;-76
2023/04/13 15:43:01;;;;;;;;;;;;;;;;;;5074770;28;19916;-77
2023/04/13 15:45:47;;;;;;;;;;;;;;;;;;5073376;28;19916;-76
2023/04/13 15:48:34;;;;;;;;;;;;;;;;;;5081714;28;19920;-76
2023/04/13 15:51:21;;;;;;;;;;;;;;;;;;5079948;28;20405;-76
2023/04/13 15:54:07;;;;;;;;;;;;;;;;;;5071145;28;20526;-76
2023/04/13 15:56:54;;;;;;;;;;;;;;;;;;5077960;28;19919;-76
2023/04/13 15:59:40;;;;;;;;;;;;;;;;;;5064324;28;19921;-76
2023/04/13 16:02:27;;;;;;;;;;;;;;;;;;5052813;28;19927;-76
2023/04/13 16:05:13;;;;;;;;;;;;;;;;;;5053408;28;20372;-76
2023/04/13 16:08:00;;;;;;;;;;;;;;;;;;5056832;28;20635;-76
2023/04/13 16:10:46;;;;;;;;;;;;;;;;;;5058329;28;19920;-76
2023/04/13 16:13:37;;;;;;;;;;;;;;;;;;5057738;28;19927;-76
2023/04/13 16:16:25;;;;;;;;;;;;;;;;;;5056922;28;19923;-76
2023/04/13 16:19:12;;;;;;;;;;;;;;;;;;5056044;28;19920;-76
2023/04/13 16:21:58;;;;;;;;;;;;;;;;;;5067534;28;19916;-77
2023/04/13 16:24:45;;;;;;;;;;;;;;;;;;5080481;28;19920;-77
2023/04/13 16:27:32;;;;;;;;;;;;;;;;;;5083222;28;19957;-76
2023/04/13 16:30:19;;;;;;;;;;;;;;;;;;5080259;28;19935;-76
2023/04/13 16:33:06;;;;;;;;;;;;;;;;;;5080248;28;19923;-76
2023/04/13 16:35:52;;;;;;;;;;;;;;;;;;5070246;28;19926;-76
2023/04/13 16:38:39;;;;;;;;;;;;;;;;;;5057010;28;19932;-77
2023/04/13 16:41:26;;;;;;;;;;;;;;;;;;5055282;28;20504;-76
2023/04/13 16:44:12;;;;;;;;;;;;;;;;;;5061214;28;19931;-76
2023/04/13 16:46:59;;;;;;;;;;;;;;;;;;5055762;28;19920;-76
2023/04/13 16:49:46;;;;;;;;;;;;;;;;;;5062488;28;20387;-76
2023/04/13 16:52:36;;;;;;;;;;;;;;;;;;5057965;28;19923;-76
2023/04/13 16:55:22;;;;;;;;;;;;;;;;;;5061990;28;19943;-77
2023/04/13 16:58:10;;;;;;;;;;;;;;;;;;5053531;28;19917;-75
2023/04/13 17:00:57;;;;;;;;;;;;;;;;;;5058157;28;19916;-75
2023/04/13 17:03:43;;;;;;;;;;;;;;;;;;5087236;28;20434;-76
2023/04/13 17:06:30;;;;;;;;;;;;;;;;;;5083405;28;19916;-76
2023/04/13 17:09:17;;;;;;;;;;;;;;;;;;5085778;28;19928;-76
2023/04/13 17:12:03;;;;;;;;;;;;;;;;;;5076768;28;19926;-76
2023/04/13 17:14:50;;;;;;;;;;;;;;;;;;5086357;28;19926;-76
2023/04/13 17:17:36;;;;;;;;;;;;;;;;;;5061288;28;19916;-76
2023/04/13 17:20:23;;;;;;;;;;;;;;;;;;5057248;28;20375;-76
2023/04/13 17:23:09;;;;;;;;;;;;;;;;;;5048483;28;19916;-76
2023/04/13 17:25:56;;;;;;;;;;;;;;;;;;5062811;28;19920;-78
2023/04/13 17:28:42;;;;;;;;;;;;;;;;;;5064771;28;19925;-76
2023/04/13 17:31:29;;;;;;;;;;;;;;;;;;5070201;28;19926;-76
2023/04/13 17:34:15;;;;;;;;;;;;;;;;;;5070623;28;19917;-75
2023/04/13 17:37:02;;;;;;;;;;;;;;;;;;5065639;28;19917;-75
2023/04/13 17:39:50;;;;;;;;;;;;;;;;;;5043966;28;19967;-76
2023/04/13 17:42:36;;;;;;;;;;;;;;;;;;5037383;28;19920;-76
2023/04/13 17:45:23;;;;;;;;;;;;;;;;;;5079343;28;19920;-76
2023/04/13 17:48:09;;;;;;;;;;;;;;;;;;5046424;28;19924;-76
2023/04/13 17:50:56;;;;;;;;;;;;;;;;;;5062367;28;19924;-76
2023/04/13 17:53:42;;;;;;;;;;;;;;;;;;5066507;28;19927;-75
2023/04/13 17:56:29;;;;;;;;;;;;;;;;;;5052346;28;19920;-76
2023/04/13 17:59:16;;;;;;;;;;;;;;;;;;5065529;28;20319;-76
2023/04/13 18:02:02;;;;;;;;;;;;;;;;;;5061667;28;20351;-76
2023/04/13 18:04:48;;;;;;;;;;;;;;;;;;5079982;28;19920;-75
2023/04/13 18:07:36;;;;;;;;;;;;;;;;;;5041936;28;20270;-75
2023/04/13 18:10:23;;;;;;;;;;;;;;;;;;5063020;28;19932;-75
2023/04/13 18:13:09;;;;;;;;;;;;;;;;;;5058904;28;19923;-76
2023/04/13 18:15:56;;;;;;;;;;;;;;;;;;5056068;28;19927;-76
2023/04/13 18:18:45;;;;;;;;;;;;;;;;;;5062924;28;19921;-75
2023/04/13 18:21:31;;;;;;;;;;;;;;;;;;5055470;28;19947;-75
2023/04/13 18:24:18;;;;;;;;;;;;;;;;;;5062956;28;19916;-77
2023/04/13 18:27:05;;;;;;;;;;;;;;;;;;5063152;28;19920;-77
2023/04/13 18:29:51;;;;;;;;;;;;;;;;;;5064523;28;19925;-77
2023/04/13 18:32:38;;;;;;;;;;;;;;;;;;5044337;28;20287;-77
2023/04/13 18:35:24;;;;;;;;;;;;;;;;;;5058246;28;20272;-77
2023/04/13 18:38:11;;;;;;;;;;;;;;;;;;5062788;28;19935;-77
2023/04/13 18:40:57;;;;;;;;;;;;;;;;;;5060563;28;20291;-77
2023/04/13 18:43:44;;;;;;;;;;;;;;;;;;5048327;28;19920;-77
2023/04/13 18:46:30;;;;;;;;;;;;;;;;;;5074162;28;19942;-77
2023/04/13 18:49:17;;;;;;;;;;;;;;;;;;5072922;28;19998;-76
2023/04/13 18:52:03;;;;;;;;;;;;;;;;;;5084625;28;19925;-77
2023/04/13 18:54:49;;;;;;;;;;;;;;;;;;5052850;28;19928;-77
2023/04/13 18:57:40;;;;;;;;;;;;;;;;;;5071227;28;19967;-77